createdAt,value
2019-02-14T00:00:48.651Z,16.12
2019-02-14T00:03:17.015Z,16.97
2019-02-14T00:05:45.245Z,17.12
2019-02-14T00:08:15.098Z,16.32
2019-02-14T00:10:43.634Z,15.53
2019-02-14T00:13:11.859Z,14.43
2019-02-14T00:15:41.792Z,14.28
2019-02-14T00:18:10.317Z,14.78
2019-02-14T00:20:38.662Z,14.23
2019-02-14T00:23:06.878Z,13.20
2019-02-14T00:25:37.742Z,11.78
2019-02-14T00:28:06.134Z,12.00
2019-02-14T00:30:34.365Z,13.43
2019-02-14T00:33:03.177Z,13.58
2019-02-14T00:35:31.557Z,14.10
2019-02-14T00:37:59.784Z,13.13
2019-02-14T00:40:30.169Z,13.20
2019-02-14T00:42:58.876Z,13.20
2019-02-14T00:45:27.117Z,13.88
2019-02-14T00:47:57.758Z,14.07
2019-02-14T00:50:26.480Z,18.15
2019-02-14T00:52:54.699Z,16.15
2019-02-14T00:55:24.525Z,16.55
2019-02-14T00:57:53.135Z,16.00
2019-02-14T01:00:21.830Z,17.20
2019-02-14T01:02:52.426Z,18.92
2019-02-14T01:05:20.827Z,19.67
2019-02-14T01:07:49.089Z,21.30
2019-02-14T01:10:17.341Z,19.12
2019-02-14T01:12:46.049Z,18.32
2019-02-14T01:15:15.936Z,12.58
2019-02-14T01:17:44.378Z,14.07
2019-02-14T01:20:12.827Z,16.85
2019-02-14T01:22:41.068Z,11.75
2019-02-14T01:25:09.611Z,10.38
2019-02-14T01:27:40.214Z,10.60
2019-02-14T01:30:10.656Z,9.05
2019-02-14T01:32:39.703Z,10.30
2019-02-14T01:35:10.067Z,9.75
2019-02-14T01:37:38.303Z,9.48
2019-02-14T01:40:07.577Z,10.30
2019-02-14T01:42:36.248Z,8.38
2019-02-14T01:45:07.617Z,8.20
2019-02-14T01:47:35.888Z,9.43
2019-02-14T01:50:06.897Z,8.50
2019-02-14T01:52:35.151Z,9.53
2019-02-14T01:55:03.556Z,9.38
2019-02-14T01:57:32.030Z,8.43
2019-02-14T02:00:00.346Z,9.05
2019-02-14T02:02:28.639Z,8.95
2019-02-14T02:04:57.329Z,9.35
2019-02-14T02:07:25.545Z,7.92
2019-02-14T02:09:53.772Z,7.70
2019-02-14T02:12:22.152Z,9.28
2019-02-14T02:14:50.473Z,8.48
2019-02-14T02:17:18.812Z,8.30
2019-02-14T02:19:47.367Z,8.10
2019-02-14T02:22:15.605Z,8.58
2019-02-14T02:24:43.834Z,7.67
2019-02-14T02:27:12.394Z,9.13
2019-02-14T02:29:40.637Z,7.85
2019-02-14T02:32:08.895Z,8.40
2019-02-14T02:34:37.410Z,8.13
2019-02-14T02:37:05.657Z,8.58
2019-02-14T02:39:35.530Z,8.10
2019-02-14T02:42:03.836Z,7.83
2019-02-14T02:44:32.272Z,8.18
2019-02-14T02:47:00.522Z,8.25
2019-02-14T02:49:29.550Z,8.33
2019-02-14T02:51:58.537Z,8.63
2019-02-14T02:54:26.786Z,8.95
2019-02-14T02:56:55.114Z,8.18
2019-02-14T02:59:23.562Z,8.93
2019-02-14T03:01:51.800Z,9.28
2019-02-14T03:04:20.025Z,10.80
2019-02-14T03:06:48.510Z,9.63
2019-02-14T03:09:16.778Z,10.50
2019-02-14T03:11:45.019Z,10.38
2019-02-14T03:14:13.525Z,10.28
2019-02-14T03:16:41.754Z,10.10
2019-02-14T03:19:09.985Z,11.10
2019-02-14T03:21:38.487Z,11.18
2019-02-14T03:24:06.707Z,10.03
2019-02-14T03:26:34.972Z,10.38
2019-02-14T03:29:03.615Z,10.82
2019-02-14T03:31:31.846Z,10.13
2019-02-14T03:34:00.081Z,10.85
2019-02-14T03:36:28.381Z,10.32
2019-02-14T03:38:56.700Z,9.28
2019-02-14T03:41:26.226Z,9.93
2019-02-14T03:43:54.649Z,10.15
2019-02-14T03:46:22.880Z,9.38
2019-02-14T03:48:51.136Z,10.45
2019-02-14T03:51:20.433Z,10.63
2019-02-14T03:53:48.706Z,9.70
2019-02-14T03:56:16.934Z,10.40
2019-02-14T03:58:45.437Z,10.50
2019-02-14T04:01:13.730Z,9.48
2019-02-14T04:03:41.973Z,11.15
2019-02-14T04:06:10.401Z,10.35
2019-02-14T04:08:38.607Z,10.43
2019-02-14T04:11:06.896Z,10.72
2019-02-14T04:13:35.362Z,10.85
2019-02-14T04:16:04.515Z,10.10
2019-02-14T04:18:33.023Z,10.13
2019-02-14T04:21:01.443Z,10.20
2019-02-14T04:23:29.733Z,10.13
2019-02-14T04:25:58.001Z,9.20
2019-02-14T04:28:27.635Z,9.23
2019-02-14T04:30:55.893Z,9.03
2019-02-14T04:33:25.756Z,8.78
2019-02-14T04:35:54.185Z,8.98
2019-02-14T04:38:22.505Z,9.20
2019-02-14T04:40:50.729Z,9.25
2019-02-14T04:43:19.144Z,9.43
2019-02-14T04:45:47.392Z,9.00
2019-02-14T04:48:15.620Z,9.65
2019-02-14T04:50:44.161Z,9.63
2019-02-14T04:53:12.393Z,9.20
2019-02-14T04:55:40.637Z,9.65
2019-02-14T04:58:09.058Z,8.68
2019-02-14T05:00:37.292Z,9.58
2019-02-14T05:03:05.521Z,8.83
2019-02-14T05:05:33.922Z,9.20
2019-02-14T05:08:02.131Z,9.95
2019-02-14T05:10:30.432Z,9.85
2019-02-14T05:12:59.369Z,9.65
2019-02-14T05:15:27.628Z,9.10
2019-02-14T05:17:55.895Z,9.20
2019-02-14T05:20:25.691Z,8.95
2019-02-14T05:22:53.974Z,8.30
2019-02-14T05:25:22.192Z,10.20
2019-02-14T05:27:50.753Z,9.30
2019-02-14T05:30:19.050Z,9.83
2019-02-14T05:32:47.288Z,9.83
2019-02-14T05:35:15.631Z,9.43
2019-02-14T05:37:44.047Z,9.53
2019-02-14T05:40:12.253Z,9.58
2019-02-14T05:42:40.740Z,9.58
2019-02-14T05:45:11.195Z,9.35
2019-02-14T05:47:43.510Z,8.80
2019-02-14T05:50:15.008Z,9.38
2019-02-14T05:52:43.554Z,9.15
2019-02-14T05:55:12.810Z,9.63
2019-02-14T05:57:41.043Z,9.30
2019-02-14T06:00:16.283Z,9.70
2019-02-14T06:02:44.525Z,8.98
2019-02-14T06:05:14.379Z,9.03
2019-02-14T06:07:42.824Z,9.20
2019-02-14T06:10:11.668Z,9.68
2019-02-14T06:12:42.461Z,10.08
2019-02-14T06:15:12.275Z,9.33
2019-02-14T06:17:40.558Z,9.75
2019-02-14T06:20:10.573Z,10.23
2019-02-14T06:22:38.920Z,9.25
2019-02-14T06:25:08.689Z,10.45
2019-02-14T06:27:37.420Z,10.03
2019-02-14T06:30:09.859Z,10.35
2019-02-14T06:32:39.111Z,9.90
2019-02-14T06:35:08.902Z,10.70
2019-02-14T06:37:37.331Z,10.80
2019-02-14T06:40:13.346Z,9.78
2019-02-14T06:42:42.071Z,10.23
2019-02-14T06:45:15.374Z,10.53
2019-02-14T06:47:43.952Z,9.98
2019-02-14T06:50:12.220Z,9.48
2019-02-14T06:52:41.151Z,9.55
2019-02-14T06:55:10.533Z,10.63
2019-02-14T06:57:38.804Z,9.45
2019-02-14T07:00:11.165Z,10.43
2019-02-14T07:02:39.395Z,8.90
2019-02-14T07:05:09.390Z,9.33
2019-02-14T07:07:37.795Z,10.00
2019-02-14T07:10:08.360Z,10.08
2019-02-14T07:12:36.593Z,9.95
2019-02-14T07:15:08.656Z,9.80
2019-02-14T07:17:36.894Z,9.53
2019-02-14T07:20:08.467Z,10.48
2019-02-14T07:22:36.955Z,10.50
2019-02-14T07:25:07.536Z,10.00
2019-02-14T07:27:35.761Z,9.25
2019-02-14T07:30:07.127Z,9.25
2019-02-14T07:32:35.774Z,9.70
2019-02-14T07:35:05.653Z,10.18
2019-02-14T07:37:33.934Z,9.18
2019-02-14T07:40:03.103Z,10.28
2019-02-14T07:42:31.406Z,9.20
2019-02-14T07:44:59.724Z,8.90
2019-02-14T07:47:28.204Z,9.70
2019-02-14T07:49:56.438Z,9.73
2019-02-14T07:52:25.318Z,9.25
2019-02-14T07:54:54.308Z,8.48
2019-02-14T07:57:23.939Z,9.03
2019-02-14T07:59:52.169Z,9.58
2019-02-14T08:02:20.684Z,8.55
2019-02-14T08:04:48.935Z,9.33
2019-02-14T08:07:17.186Z,9.23
2019-02-14T08:09:45.480Z,8.15
2019-02-14T08:12:14.626Z,9.53
2019-02-14T08:14:42.874Z,8.38
2019-02-14T08:17:12.595Z,8.23
2019-02-14T08:19:40.950Z,9.05
2019-02-14T08:22:09.251Z,9.20
2019-02-14T08:24:37.541Z,8.33
2019-02-14T08:27:06.396Z,8.80
2019-02-14T08:29:34.913Z,9.15
2019-02-14T08:32:03.135Z,8.80
2019-02-14T08:34:31.403Z,8.23
2019-02-14T08:36:59.719Z,9.33
2019-02-14T08:39:27.942Z,8.60
2019-02-14T08:41:56.174Z,8.28
2019-02-14T08:44:24.601Z,8.83
2019-02-14T08:46:52.820Z,8.23
2019-02-14T08:49:21.062Z,7.92
2019-02-14T08:51:49.648Z,7.22
2019-02-14T08:54:17.878Z,8.55
2019-02-14T08:56:46.103Z,8.05
2019-02-14T08:59:14.670Z,8.58
2019-02-14T09:01:44.526Z,7.00
2019-02-14T09:04:12.751Z,8.35
2019-02-14T09:06:40.986Z,7.67
2019-02-14T09:09:10.254Z,9.05
2019-02-14T09:11:38.525Z,8.70
2019-02-14T09:14:06.793Z,8.45
2019-02-14T09:16:35.199Z,8.28
2019-02-14T09:19:03.588Z,7.28
2019-02-14T09:21:31.836Z,8.68
2019-02-14T09:24:02.718Z,7.87
2019-02-14T09:26:31.336Z,6.75
2019-02-14T09:28:59.595Z,7.53
2019-02-14T09:31:27.810Z,7.03
2019-02-14T09:34:00.925Z,8.28
2019-02-14T09:36:29.181Z,6.58
2019-02-14T09:38:57.401Z,8.35
2019-02-14T09:41:26.660Z,6.90
2019-02-14T09:43:54.991Z,7.60
2019-02-14T09:46:23.405Z,6.72
2019-02-14T09:48:51.866Z,6.70
2019-02-14T09:51:20.094Z,7.55
2019-02-14T09:53:48.764Z,7.33
2019-02-14T09:56:17.188Z,7.58
2019-02-14T09:58:45.490Z,6.55
2019-02-14T10:01:13.761Z,7.83
2019-02-14T10:03:43.542Z,7.30
2019-02-14T10:06:11.882Z,6.87
2019-02-14T10:08:40.181Z,6.33
2019-02-14T10:11:08.663Z,6.53
2019-02-14T10:13:38.415Z,6.97
2019-02-14T10:16:06.654Z,7.33
2019-02-14T10:18:35.339Z,7.05
2019-02-14T10:21:03.576Z,6.60
2019-02-14T10:23:31.858Z,7.47
2019-02-14T10:26:01.402Z,6.20
2019-02-14T10:28:29.864Z,5.67
2019-02-14T10:30:58.120Z,7.53
2019-02-14T10:33:26.918Z,5.17
2019-02-14T10:35:55.306Z,6.03
2019-02-14T10:38:23.543Z,5.80
2019-02-14T10:40:52.086Z,6.45
2019-02-14T10:43:20.363Z,5.45
2019-02-14T10:45:48.594Z,6.40
2019-02-14T10:48:17.402Z,6.40
2019-02-14T10:50:45.658Z,6.03
2019-02-14T10:53:13.906Z,6.47
2019-02-14T10:55:43.073Z,5.45
2019-02-14T10:58:11.329Z,5.95
2019-02-14T11:00:39.989Z,6.33
2019-02-14T11:03:08.445Z,5.50
2019-02-14T11:05:36.683Z,5.58
2019-02-14T11:08:04.978Z,6.25
2019-02-14T11:10:33.374Z,5.65
2019-02-14T11:13:01.646Z,5.33
2019-02-14T11:15:29.905Z,5.17
2019-02-14T11:17:58.599Z,5.37
2019-02-14T11:20:26.872Z,5.55
2019-02-14T11:22:55.220Z,6.25
2019-02-14T11:25:26.870Z,5.50
2019-02-14T11:27:55.170Z,5.17
2019-02-14T11:30:24.126Z,6.08
2019-02-14T11:32:52.525Z,5.62
2019-02-14T11:35:20.786Z,5.20
2019-02-14T11:37:49.095Z,5.78
2019-02-14T11:40:17.565Z,8.70
2019-02-14T11:42:47.463Z,6.05
2019-02-14T11:45:20.896Z,5.20
2019-02-14T11:47:49.163Z,5.47
2019-02-14T11:50:17.405Z,5.97
2019-02-14T11:52:45.792Z,4.67
2019-02-14T11:55:14.133Z,5.22
2019-02-14T11:57:42.573Z,4.97
2019-02-14T12:00:20.451Z,5.78
2019-02-14T12:02:55.033Z,5.15
2019-02-14T12:05:18.748Z,4.78
2019-02-14T12:07:47.189Z,5.17
2019-02-14T12:10:15.492Z,5.37
2019-02-14T12:12:43.946Z,4.75
2019-02-14T12:15:13.939Z,5.05
2019-02-14T12:17:42.979Z,5.30
2019-02-14T12:20:12.878Z,5.70
2019-02-14T12:22:46.512Z,5.50
2019-02-14T12:25:14.298Z,4.70
2019-02-14T12:27:42.766Z,4.95
2019-02-14T12:30:13.799Z,5.03
2019-02-14T12:32:42.059Z,4.70
2019-02-14T12:35:11.869Z,4.62
2019-02-14T12:37:40.144Z,4.05
2019-02-14T12:40:13.124Z,4.75
2019-02-14T12:42:41.389Z,4.45
2019-02-14T12:45:20.534Z,4.90
2019-02-14T12:47:48.067Z,5.00
2019-02-14T12:50:16.322Z,4.58
2019-02-14T12:52:44.857Z,4.58
2019-02-14T12:55:13.179Z,3.98
2019-02-14T12:57:41.433Z,4.03
2019-02-14T13:00:18.522Z,3.50
2019-02-14T13:02:46.771Z,4.08
2019-02-14T13:05:15.031Z,4.22
2019-02-14T13:07:43.585Z,3.92
2019-02-14T13:10:17.400Z,3.45
2019-02-14T13:12:46.177Z,3.55
2019-02-14T13:15:25.062Z,4.17
2019-02-14T13:17:53.617Z,3.72
2019-02-14T13:20:21.843Z,3.62
2019-02-14T13:22:50.125Z,3.35
2019-02-14T13:25:19.158Z,3.52
2019-02-14T13:27:47.482Z,3.25
2019-02-14T13:30:25.179Z,3.20
2019-02-14T13:32:53.533Z,2.67
2019-02-14T13:35:21.797Z,2.65
2019-02-14T13:37:50.039Z,2.10
2019-02-14T13:40:19.046Z,2.08
2019-02-14T13:42:47.319Z,2.22
2019-02-14T13:45:24.285Z,2.25
2019-02-14T13:47:52.568Z,2.58
2019-02-14T13:50:20.818Z,2.58
2019-02-14T13:52:49.796Z,2.52
2019-02-14T13:55:18.105Z,2.70
2019-02-14T13:57:46.588Z,2.52
2019-02-14T14:00:25.887Z,2.50
2019-02-14T14:02:54.426Z,2.30
2019-02-14T14:05:22.688Z,2.12
2019-02-14T14:07:50.960Z,2.70
2019-02-14T14:10:19.237Z,2.87
2019-02-14T14:12:47.868Z,2.05
2019-02-14T14:15:16.208Z,2.52
2019-02-14T14:17:44.501Z,2.52
2019-02-14T14:20:13.096Z,2.30
2019-02-14T14:22:41.332Z,2.25
2019-02-14T14:25:11.423Z,2.08
2019-02-14T14:27:39.946Z,2.30
2019-02-14T14:30:11.072Z,2.60
2019-02-14T14:32:39.410Z,2.05
2019-02-14T14:35:10.790Z,2.35
2019-02-14T14:37:39.242Z,2.15
2019-02-14T14:40:14.083Z,2.00
2019-02-14T14:42:51.535Z,1.55
2019-02-14T14:45:25.520Z,2.12
2019-02-14T14:47:53.816Z,2.05
2019-02-14T14:50:22.172Z,2.12
2019-02-14T14:52:50.933Z,1.92
2019-02-14T14:55:19.193Z,2.80
2019-02-14T14:57:47.438Z,2.33
2019-02-14T15:00:15.847Z,2.12
2019-02-14T15:02:44.133Z,2.20
2019-02-14T15:05:12.366Z,1.67
2019-02-14T15:07:41.028Z,1.90
2019-02-14T15:10:09.259Z,2.05
2019-02-14T15:12:37.477Z,1.77
2019-02-14T15:15:08.081Z,1.92
2019-02-14T15:17:36.324Z,1.47
2019-02-14T15:20:07.832Z,1.92
2019-02-14T15:22:36.237Z,2.58
2019-02-14T15:25:05.136Z,1.47
2019-02-14T15:27:33.376Z,1.20
2019-02-14T15:30:01.710Z,1.52
2019-02-14T15:32:29.992Z,1.17
2019-02-14T15:34:58.222Z,1.22
2019-02-14T15:37:26.683Z,1.47
2019-02-14T15:39:54.988Z,1.77
2019-02-14T15:42:23.261Z,2.27
2019-02-14T15:44:51.594Z,4.37
2019-02-14T15:47:19.835Z,2.98
2019-02-14T15:49:49.353Z,2.05
2019-02-14T15:52:18.054Z,1.42
2019-02-14T15:54:46.291Z,1.50
2019-02-14T15:57:16.524Z,3.20
2019-02-14T15:59:45.462Z,1.50
2019-02-14T16:02:14.100Z,1.98
2019-02-14T16:04:42.332Z,2.12
2019-02-14T16:07:11.009Z,1.60
2019-02-14T16:09:41.248Z,1.77
2019-02-14T16:12:09.214Z,1.75
2019-02-14T16:14:37.547Z,2.58
2019-02-14T16:17:06.754Z,1.87
2019-02-14T16:19:36.537Z,2.08
2019-02-14T16:22:05.687Z,1.75
2019-02-14T16:24:33.986Z,2.08
2019-02-14T16:27:03.320Z,1.95
2019-02-14T16:29:31.876Z,5.60
2019-02-14T16:32:00.101Z,5.30
2019-02-14T16:34:28.374Z,2.45
2019-02-14T16:36:56.957Z,2.40
2019-02-14T16:39:25.746Z,2.80
2019-02-14T16:41:54.327Z,1.85
2019-02-14T16:44:22.763Z,2.45
2019-02-14T16:46:51.104Z,2.27
2019-02-14T16:49:19.327Z,3.80
2019-02-14T16:51:47.974Z,2.50
2019-02-14T16:54:16.202Z,2.45
2019-02-14T16:56:44.459Z,2.20
2019-02-14T16:59:12.895Z,2.35
2019-02-14T17:01:41.155Z,2.10
2019-02-14T17:04:09.379Z,2.87
2019-02-14T17:06:37.894Z,2.80
2019-02-14T17:09:06.793Z,2.58
2019-02-14T17:11:35.073Z,2.05
2019-02-14T17:14:05.627Z,2.08
2019-02-14T17:16:35.491Z,3.40
2019-02-14T17:19:03.740Z,2.60
2019-02-14T17:21:32.106Z,1.90
2019-02-14T17:24:00.357Z,2.05
2019-02-14T17:26:28.611Z,2.35
2019-02-14T17:28:57.058Z,2.90
2019-02-14T17:31:25.326Z,4.55
2019-02-14T17:33:53.579Z,2.60
2019-02-14T17:36:22.202Z,2.70
2019-02-14T17:38:50.477Z,2.00
2019-02-14T17:41:18.777Z,2.35
2019-02-14T17:43:47.240Z,2.42
2019-02-14T17:46:15.561Z,2.62
2019-02-14T17:48:43.843Z,3.05
2019-02-14T17:51:12.329Z,2.65
2019-02-14T17:53:40.560Z,2.58
2019-02-14T17:56:08.884Z,3.08
2019-02-14T17:58:37.388Z,2.85
2019-02-14T18:01:05.738Z,2.72
2019-02-14T18:03:34.085Z,2.70
2019-02-14T18:06:02.978Z,3.55
2019-02-14T18:08:31.245Z,3.52
2019-02-14T18:10:59.670Z,2.50
2019-02-14T18:13:28.191Z,2.80
2019-02-14T18:15:56.949Z,3.40
2019-02-14T18:18:25.261Z,2.85
2019-02-14T18:20:53.702Z,2.67
2019-02-14T18:23:22.420Z,2.67
2019-02-14T18:25:50.758Z,12.37
2019-02-14T18:28:20.136Z,7.50
2019-02-14T18:30:48.515Z,137.52
2019-02-14T18:33:17.625Z,300.95
2019-02-14T18:35:45.912Z,290.98
2019-02-14T18:38:14.478Z,478.50
2019-02-14T18:40:43.499Z,166.00
2019-02-14T18:43:11.800Z,151.60
2019-02-14T18:45:40.064Z,688.83
2019-02-14T18:48:08.993Z,560.42
2019-02-14T18:50:37.288Z,124.33
2019-02-14T18:53:05.546Z,11.60
2019-02-14T18:55:34.361Z,4.03
2019-02-14T18:58:03.862Z,3.30
2019-02-14T19:00:32.134Z,3.05
2019-02-14T19:03:00.705Z,3.30
2019-02-14T19:05:29.967Z,3.55
2019-02-14T19:07:58.223Z,3.80
2019-02-14T19:10:27.488Z,3.52
2019-02-14T19:12:56.210Z,2.62
2019-02-14T19:15:24.703Z,3.08
2019-02-14T19:17:53.436Z,2.80
2019-02-14T19:20:21.704Z,3.10
2019-02-14T19:22:50.150Z,71.25
2019-02-14T19:25:18.539Z,4.75
2019-02-14T19:27:46.940Z,3.65
2019-02-14T19:30:15.390Z,2.75
2019-02-14T19:32:44.538Z,3.92
2019-02-14T19:35:12.948Z,4.03
2019-02-14T19:37:41.396Z,3.40
2019-02-14T19:40:09.887Z,3.87
2019-02-14T19:42:38.156Z,4.17
2019-02-14T19:45:10.981Z,3.98
2019-02-14T19:47:39.299Z,3.72
2019-02-14T19:50:12.617Z,3.37
2019-02-14T19:52:41.023Z,3.47
2019-02-14T19:55:09.879Z,12.37
2019-02-14T19:57:38.364Z,9.63
2019-02-14T20:00:10.222Z,23.62
2019-02-14T20:02:38.539Z,9.78
2019-02-14T20:05:08.595Z,3.98
2019-02-14T20:07:36.888Z,4.15
2019-02-14T20:10:08.608Z,3.87
2019-02-14T20:12:37.248Z,4.12
2019-02-14T20:15:08.930Z,3.27
2019-02-14T20:17:37.212Z,3.70
2019-02-14T20:20:08.259Z,3.83
2019-02-14T20:22:36.629Z,5.33
2019-02-14T20:25:07.921Z,4.00
2019-02-14T20:27:36.557Z,6.20
2019-02-14T20:30:07.786Z,7.65
2019-02-14T20:32:36.092Z,3.58
2019-02-14T20:35:06.497Z,4.30
2019-02-14T20:37:35.235Z,4.60
2019-02-14T20:40:10.534Z,5.28
2019-02-14T20:42:38.789Z,4.22
2019-02-14T20:45:12.833Z,4.62
2019-02-14T20:47:41.182Z,3.77
2019-02-14T20:50:11.938Z,4.83
2019-02-14T20:52:40.906Z,5.03
2019-02-14T20:55:15.213Z,4.62
2019-02-14T20:57:44.334Z,5.12
2019-02-14T21:00:17.105Z,4.60
2019-02-14T21:02:45.545Z,4.87
2019-02-14T21:05:14.332Z,5.42
2019-02-14T21:07:42.952Z,5.47
2019-02-14T21:10:11.544Z,5.35
2019-02-14T21:12:39.773Z,4.37
2019-02-14T21:15:09.084Z,5.75
2019-02-14T21:17:39.283Z,5.62
2019-02-14T21:20:12.667Z,4.47
2019-02-14T21:22:41.132Z,5.45
2019-02-14T21:25:09.751Z,5.65
2019-02-14T21:27:38.099Z,5.00
2019-02-14T21:30:15.860Z,4.62
2019-02-14T21:32:44.889Z,4.85
2019-02-14T21:35:13.314Z,4.75
2019-02-14T21:37:41.928Z,4.60
2019-02-14T21:40:18.990Z,4.22
2019-02-14T21:42:47.514Z,4.03
2019-02-14T21:45:17.168Z,4.35
2019-02-14T21:47:45.753Z,3.98
2019-02-14T21:50:16.324Z,3.90
2019-02-14T21:52:44.635Z,3.75
2019-02-14T21:55:14.546Z,3.72
2019-02-14T21:57:43.112Z,4.78
2019-02-14T22:00:14.881Z,4.47
2019-02-14T22:02:43.504Z,3.55
2019-02-14T22:05:12.403Z,4.47
2019-02-14T22:07:40.772Z,3.98
2019-02-14T22:10:15.209Z,4.42
2019-02-14T22:12:44.266Z,4.47
2019-02-14T22:15:16.883Z,4.08
2019-02-14T22:17:45.165Z,4.55
2019-02-14T22:20:13.425Z,4.60
2019-02-14T22:22:41.857Z,4.67
2019-02-14T22:25:13.017Z,3.85
2019-02-14T22:27:41.263Z,4.77
2019-02-14T22:30:13.864Z,4.00
2019-02-14T22:32:43.749Z,4.10
2019-02-14T22:35:12.743Z,3.87
2019-02-14T22:37:41.240Z,3.55
2019-02-14T22:40:13.814Z,4.12
2019-02-14T22:42:46.976Z,3.17
2019-02-14T22:45:13.857Z,5.78
2019-02-14T22:47:42.182Z,4.92
2019-02-14T22:50:11.395Z,4.20
2019-02-14T22:52:39.627Z,3.52
2019-02-14T22:55:09.596Z,3.37
2019-02-14T22:57:37.907Z,3.50
2019-02-14T23:00:37.327Z,2.90
2019-02-14T23:03:05.682Z,3.35
2019-02-14T23:05:33.965Z,4.00
2019-02-14T23:08:02.479Z,3.40
2019-02-14T23:10:30.790Z,3.22
2019-02-14T23:12:59.034Z,3.67
2019-02-14T23:15:27.554Z,3.40
2019-02-14T23:17:55.801Z,3.85
2019-02-14T23:20:24.103Z,3.75
2019-02-14T23:22:52.359Z,3.22
2019-02-14T23:25:20.916Z,3.52
2019-02-14T23:27:49.234Z,3.47
2019-02-14T23:30:17.554Z,3.75
2019-02-14T23:32:46.038Z,3.30
2019-02-14T23:35:14.269Z,3.58
2019-02-14T23:37:42.582Z,3.75
2019-02-14T23:40:11.004Z,3.40
2019-02-14T23:42:39.236Z,4.03
2019-02-14T23:45:09.427Z,3.33
2019-02-14T23:47:37.946Z,3.98
2019-02-14T23:50:08.583Z,3.00
2019-02-14T23:52:36.835Z,3.25
2019-02-14T23:55:08.920Z,3.10
